Time;durP1;ratioP1;P1;durP2;ratioP2;P2;SDS_P1;SDS_P2;PMS_P1;PMS_P2;Temp;Humidity;BMP_temperature;BMP_pressure;BME280_temperature;BME280_humidity;BME280_pressure;Samples;Min_cycle;Max_cycle;Signal;HPM_P1;HPM_P2
2024/01/28 00:00:42;;;;;;;6.80;5.07;;;1.30;99.90;;;;;;5074161;28;20170;-70
2024/01/28 00:03:08;;;;;;;8.50;4.63;;;1.40;99.90;;;;;;5073865;28;20420;-71
2024/01/28 00:05:34;;;;;;;6.03;3.83;;;1.40;99.90;;;;;;5074030;28;20509;-70
2024/01/28 00:08:00;;;;;;;10.40;4.93;;;1.40;99.90;;;;;;5072503;28;20232;-71
2024/01/28 00:10:25;;;;;;;14.23;5.07;;;1.30;99.90;;;;;;5074015;28;20169;-71
2024/01/28 00:12:51;;;;;;;8.40;4.70;;;1.40;99.90;;;;;;5073952;28;20771;-70
2024/01/28 00:15:17;;;;;;;6.47;5.83;;;1.30;99.90;;;;;;5073973;28;20178;-70
2024/01/28 00:17:43;;;;;;;8.90;4.40;;;1.40;99.90;;;;;;5073401;28;20444;-70
2024/01/28 00:20:09;;;;;;;12.60;4.60;;;1.40;99.90;;;;;;5072264;28;20198;-69
2024/01/28 00:22:35;;;;;;;14.57;4.50;;;1.40;99.90;;;;;;5073573;28;20595;-71
2024/01/28 00:25:00;;;;;;;8.67;5.07;;;1.40;99.90;;;;;;5073543;28;20499;-70
2024/01/28 00:27:26;;;;;;;12.40;6.00;;;1.40;99.90;;;;;;5073466;28;20584;-71
2024/01/28 00:29:51;;;;;;;11.70;5.43;;;1.50;99.90;;;;;;5073541;28;20220;-71
2024/01/28 00:32:17;;;;;;;9.20;4.10;;;1.50;99.90;;;;;;5073304;28;20162;-70
2024/01/28 00:34:43;;;;;;;10.70;4.63;;;1.40;99.90;;;;;;5073205;28;20226;-69
2024/01/28 00:37:08;;;;;;;10.63;4.20;;;1.40;99.90;;;;;;5072845;28;20240;-71
2024/01/28 00:39:35;;;;;;;10.03;5.20;;;1.40;99.90;;;;;;5073148;28;20166;-71
2024/01/28 00:42:01;;;;;;;16.80;6.13;;;1.40;99.90;;;;;;5073311;28;20162;-70
2024/01/28 00:44:27;;;;;;;9.40;4.70;;;1.30;99.90;;;;;;5073128;28;20428;-71
2024/01/28 00:46:55;;;;;;;8.67;5.40;;;1.30;99.90;;;;;;5073153;28;20455;-69
2024/01/28 00:49:23;;;;;;;9.60;4.20;;;1.20;99.90;;;;;;5072177;28;20667;-71
2024/01/28 00:51:49;;;;;;;6.90;4.70;;;1.20;99.90;;;;;;5073245;28;20452;-70
2024/01/28 00:54:15;;;;;;;9.77;4.77;;;1.20;99.90;;;;;;5071757;28;20428;-70
2024/01/28 00:56:41;;;;;;;12.73;5.50;;;1.20;99.90;;;;;;5071518;28;20198;-71
2024/01/28 00:59:06;;;;;;;10.17;4.87;;;1.20;99.90;;;;;;5073075;28;20450;-71
2024/01/28 01:01:32;;;;;;;7.57;4.40;;;1.10;99.90;;;;;;5073087;28;20170;-71
2024/01/28 01:03:58;;;;;;;9.17;4.83;;;1.20;99.90;;;;;;5072995;28;20233;-71
2024/01/28 01:06:23;;;;;;;6.23;3.97;;;1.10;99.90;;;;;;5072717;28;20188;-70
2024/01/28 01:08:49;;;;;;;10.50;4.83;;;1.00;99.90;;;;;;5072807;28;20400;-70
2024/01/28 01:11:14;;;;;;;10.20;4.70;;;1.00;99.90;;;;;;5072710;28;20545;-70
2024/01/28 01:13:40;;;;;;;17.77;4.90;;;1.00;99.90;;;;;;5073312;28;20258;-70
2024/01/28 01:16:06;;;;;;;10.83;5.37;;;0.90;99.90;;;;;;5072633;28;20197;-70
2024/01/28 01:18:31;;;;;;;7.33;4.63;;;1.00;99.90;;;;;;5072627;28;20162;-69
2024/01/28 01:20:57;;;;;;;7.60;3.67;;;0.90;99.90;;;;;;5072663;28;20167;-70
2024/01/28 01:23:22;;;;;;;7.97;4.77;;;0.90;99.90;;;;;;5071428;28;20187;-70
2024/01/28 01:25:48;;;;;;;12.20;4.93;;;0.90;99.90;;;;;;5071153;28;20198;-70
2024/01/28 01:28:13;;;;;;;6.27;4.07;;;0.80;99.90;;;;;;5070823;28;20166;-70
2024/01/28 01:30:39;;;;;;;7.00;4.30;;;0.80;99.90;;;;;;5072464;28;20165;-69
2024/01/28 01:33:05;;;;;;;8.97;4.00;;;0.70;99.90;;;;;;5072126;28;20219;-70
2024/01/28 01:35:30;;;;;;;6.27;4.07;;;0.70;99.90;;;;;;5071061;28;20205;-71
2024/01/28 01:37:56;;;;;;;10.97;4.17;;;0.70;99.90;;;;;;5071142;28;20660;-70
2024/01/28 01:40:21;;;;;;;7.97;3.47;;;0.70;99.90;;;;;;5072284;28;20177;-69
2024/01/28 01:42:47;;;;;;;9.17;4.43;;;0.70;99.90;;;;;;5072212;28;20172;-70
2024/01/28 01:45:13;;;;;;;5.03;3.83;;;0.60;99.90;;;;;;5072249;28;20284;-71
2024/01/28 01:47:40;;;;;;;6.50;4.10;;;0.60;99.90;;;;;;5071775;28;20641;-70
2024/01/28 01:50:10;;;;;;;8.33;5.17;;;0.70;99.90;;;;;;5071138;28;20163;-71
2024/01/28 01:52:38;;;;;;;3.67;2.87;;;0.70;99.90;;;;;;5070746;28;20840;-70
2024/01/28 01:55:05;;;;;;;14.47;3.87;;;0.60;99.90;;;;;;5072076;28;20464;-71
2024/01/28 01:57:30;;;;;;;5.63;3.77;;;0.70;99.90;;;;;;5071635;28;20530;-70
2024/01/28 01:59:56;;;;;;;8.40;3.23;;;0.60;99.90;;;;;;5070625;28;20503;-71
2024/01/28 02:02:22;;;;;;;5.43;4.03;;;0.50;99.90;;;;;;5072017;28;20166;-70
2024/01/28 02:04:49;;;;;;;6.80;3.93;;;0.50;99.90;;;;;;5071705;28;20359;-71
2024/01/28 02:07:15;;;;;;;8.60;3.93;;;0.50;99.90;;;;;;5071545;28;20436;-70
2024/01/28 02:09:40;;;;;;;15.20;4.53;;;0.50;99.90;;;;;;5071951;28;20409;-70
2024/01/28 02:12:06;;;;;;;7.00;3.03;;;0.40;99.90;;;;;;5072008;28;20166;-71
2024/01/28 02:14:31;;;;;;;9.50;3.30;;;0.40;99.90;;;;;;5071918;28;20202;-71
2024/01/28 02:17:01;;;;;;;11.23;4.03;;;0.40;99.90;;;;;;5071626;28;20603;-70
2024/01/28 02:19:28;;;;;;;10.73;3.70;;;0.40;99.90;;;;;;5071848;28;20219;-70
2024/01/28 02:21:54;;;;;;;21.27;4.80;;;0.40;99.90;;;;;;5071674;28;20483;-70
2024/01/28 02:24:20;;;;;;;15.60;4.33;;;0.40;99.90;;;;;;5071742;28;20515;-70
2024/01/28 02:26:45;;;;;;;6.10;4.47;;;0.30;99.90;;;;;;5071551;28;20643;-71
2024/01/28 02:29:11;;;;;;;11.77;3.40;;;0.30;99.90;;;;;;5071750;28;20404;-69
2024/01/28 02:31:36;;;;;;;9.57;3.60;;;0.40;99.90;;;;;;5071634;28;20220;-70
2024/01/28 02:34:02;;;;;;;7.33;3.90;;;0.30;99.90;;;;;;5071747;28;20177;-69
2024/01/28 02:36:29;;;;;;;5.40;3.80;;;0.40;99.90;;;;;;5071842;28;20280;-69
2024/01/28 02:38:55;;;;;;;11.77;3.70;;;0.40;99.90;;;;;;5070347;28;20197;-70
2024/01/28 02:41:20;;;;;;;3.80;2.93;;;0.50;99.90;;;;;;5071533;28;20485;-70
2024/01/28 02:43:46;;;;;;;7.20;3.50;;;0.40;99.90;;;;;;5071274;28;20162;-70
2024/01/28 02:46:13;;;;;;;6.70;4.67;;;0.40;99.90;;;;;;5071175;28;20190;-70
2024/01/28 02:48:38;;;;;;;13.30;4.00;;;0.40;99.90;;;;;;5071453;28;20573;-70
2024/01/28 02:51:04;;;;;;;5.97;3.40;;;0.30;99.90;;;;;;5071444;28;20415;-70
2024/01/28 02:53:30;;;;;;;12.23;4.17;;;0.30;99.90;;;;;;5071446;28;20186;-71
2024/01/28 02:55:59;;;;;;;8.23;3.70;;;0.30;99.90;;;;;;5071232;28;20665;-70
2024/01/28 02:58:25;;;;;;;9.17;4.70;;;0.30;99.90;;;;;;5071110;28;20219;-71
2024/01/28 03:00:51;;;;;;;4.80;3.30;;;0.30;99.90;;;;;;5072027;28;20396;-71
2024/01/28 03:03:16;;;;;;;6.60;3.63;;;0.30;99.90;;;;;;5075103;28;20415;-71
2024/01/28 03:05:42;;;;;;;5.80;3.13;;;0.30;99.90;;;;;;5075150;28;20193;-70
2024/01/28 03:08:07;;;;;;;6.40;4.80;;;0.30;99.90;;;;;;5075020;28;20542;-69
2024/01/28 03:10:33;;;;;;;10.03;4.17;;;0.30;99.90;;;;;;5075139;28;20165;-70
2024/01/28 03:12:58;;;;;;;13.80;4.17;;;0.30;99.90;;;;;;5075144;28;20165;-70
2024/01/28 03:15:24;;;;;;;6.23;3.80;;;0.30;99.90;;;;;;5074801;28;20193;-69
2024/01/28 03:17:49;;;;;;;3.83;3.00;;;0.40;99.90;;;;;;5074781;28;20193;-70
2024/01/28 03:20:17;;;;;;;3.80;2.90;;;0.40;99.90;;;;;;5075077;28;20194;-70
2024/01/28 03:22:43;;;;;;;3.07;2.70;;;0.50;99.90;;;;;;5075034;28;20169;-70
2024/01/28 03:25:08;;;;;;;7.27;3.90;;;0.60;99.90;;;;;;5074904;28;20417;-70
2024/01/28 03:27:34;;;;;;;3.80;3.20;;;0.60;99.90;;;;;;5074690;28;20644;-69
2024/01/28 03:30:00;;;;;;;9.47;3.67;;;0.60;99.90;;;;;;5074891;28;20176;-70
2024/01/28 03:32:25;;;;;;;7.83;3.63;;;0.60;99.90;;;;;;5074675;28;20173;-70
2024/01/28 03:34:51;;;;;;;7.93;3.53;;;0.60;99.90;;;;;;5074690;28;20198;-71
2024/01/28 03:37:16;;;;;;;25.17;4.50;;;0.50;99.90;;;;;;5074236;28;20279;-70
2024/01/28 03:39:42;;;;;;;4.87;2.87;;;0.50;99.90;;;;;;5074518;28;20169;-70
2024/01/28 03:42:11;;;;;;;3.67;3.20;;;0.60;99.90;;;;;;5074536;28;20649;-69
2024/01/28 03:44:36;;;;;;;6.20;3.70;;;0.60;99.90;;;;;;5074353;28;20232;-71
2024/01/28 03:47:02;;;;;;;6.33;4.00;;;0.60;99.90;;;;;;5074098;28;20899;-70
2024/01/28 03:49:27;;;;;;;6.87;3.70;;;0.60;99.90;;;;;;5074410;28;20174;-71
2024/01/28 03:51:53;;;;;;;7.20;3.60;;;0.60;99.90;;;;;;5074242;28;20185;-70
2024/01/28 03:54:19;;;;;;;9.80;3.40;;;0.50;99.90;;;;;;5074200;28;20680;-71
2024/01/28 03:56:44;;;;;;;6.93;3.87;;;0.50;99.90;;;;;;5074092;28;20197;-70
2024/01/28 03:59:10;;;;;;;4.30;2.83;;;0.50;99.90;;;;;;5074555;28;20176;-70
2024/01/28 04:01:36;;;;;;;19.23;4.83;;;0.50;99.90;;;;;;5074527;28;20167;-70
2024/01/28 04:04:02;;;;;;;3.73;3.23;;;0.60;99.90;;;;;;5074000;28;20405;-70
2024/01/28 04:06:28;;;;;;;5.93;4.07;;;0.70;99.90;;;;;;5073648;28;20872;-70
2024/01/28 04:08:55;;;;;;;8.27;3.20;;;0.70;99.90;;;;;;5073862;28;20406;-70
2024/01/28 04:11:25;;;;;;;10.30;3.73;;;0.80;99.90;;;;;;5073988;28;20165;-70
2024/01/28 04:13:51;;;;;;;8.63;3.43;;;0.80;99.90;;;;;;5072806;28;20415;-71
2024/01/28 04:16:16;;;;;;;6.37;3.10;;;0.90;99.90;;;;;;5073463;28;20451;-70
2024/01/28 04:18:42;;;;;;;6.57;4.90;;;0.90;99.90;;;;;;5073597;28;20414;-71
2024/01/28 04:21:07;;;;;;;4.63;3.03;;;0.90;99.90;;;;;;5073658;28;20162;-71
2024/01/28 04:23:33;;;;;;;3.17;2.70;;;0.90;99.90;;;;;;5073748;28;20170;-70
2024/01/28 04:25:58;;;;;;;8.53;4.27;;;0.90;99.90;;;;;;5072391;28;20264;-71
2024/01/28 04:28:25;;;;;;;7.73;3.90;;;0.80;99.90;;;;;;5073527;28;20253;-71
2024/01/28 04:30:51;;;;;;;5.50;4.20;;;0.80;99.90;;;;;;5073641;28;20185;-71
2024/01/28 04:33:17;;;;;;;7.00;3.97;;;0.80;99.90;;;;;;5073550;28;20772;-71
2024/01/28 04:35:42;;;;;;;8.70;4.00;;;0.80;99.90;;;;;;5071536;28;20428;-70
2024/01/28 04:38:08;;;;;;;6.23;4.27;;;0.80;99.90;;;;;;5073320;28;20712;-70
2024/01/28 04:40:34;;;;;;;11.30;4.47;;;0.80;99.90;;;;;;5073459;28;20528;-70
2024/01/28 04:42:59;;;;;;;11.17;3.63;;;0.80;99.90;;;;;;5073174;28;20162;-71
2024/01/28 04:45:25;;;;;;;9.97;3.93;;;0.70;99.90;;;;;;5073212;28;20424;-71
2024/01/28 04:47:51;;;;;;;3.73;2.97;;;0.70;99.90;;;;;;5073116;28;20376;-70
2024/01/28 04:50:16;;;;;;;5.60;3.23;;;0.70;99.90;;;;;;5073122;28;20248;-71
2024/01/28 04:52:42;;;;;;;3.63;2.37;;;0.70;99.90;;;;;;5072768;28;20178;-70
2024/01/28 04:55:07;;;;;;;5.53;3.37;;;0.80;99.90;;;;;;5072931;28;20222;-71
2024/01/28 04:57:33;;;;;;;6.70;4.40;;;0.70;99.90;;;;;;5072565;28;20623;-71
2024/01/28 04:59:58;;;;;;;7.40;4.47;;;0.70;99.90;;;;;;5073129;28;20249;-70
2024/01/28 05:02:24;;;;;;;6.30;3.40;;;0.70;99.90;;;;;;5072760;28;20170;-71
2024/01/28 05:04:49;;;;;;;6.13;3.77;;;0.70;99.90;;;;;;5071371;28;20198;-69
2024/01/28 05:07:16;;;;;;;5.30;2.80;;;0.80;99.90;;;;;;5072625;28;20181;-71
2024/01/28 05:09:42;;;;;;;8.47;2.50;;;0.80;99.90;;;;;;5072607;28;20177;-71
2024/01/28 05:12:07;;;;;;;8.03;3.33;;;0.70;99.90;;;;;;5072674;28;20771;-70
2024/01/28 05:14:33;;;;;;;5.23;2.70;;;0.70;99.90;;;;;;5072577;28;20668;-69
2024/01/28 05:17:00;;;;;;;4.53;2.53;;;0.70;99.90;;;;;;5072565;28;20285;-69
2024/01/28 05:19:26;;;;;;;7.00;3.13;;;0.70;99.90;;;;;;5072641;28;20407;-70
2024/01/28 05:21:52;;;;;;;10.57;2.87;;;0.70;99.90;;;;;;5071391;28;20979;-70
2024/01/28 05:24:18;;;;;;;7.13;3.00;;;0.70;99.90;;;;;;5072548;28;20209;-70
2024/01/28 05:26:43;;;;;;;7.97;3.47;;;0.60;99.90;;;;;;5072577;28;20170;-70
2024/01/28 05:29:09;;;;;;;11.00;3.83;;;0.60;99.90;;;;;;5072580;28;20415;-70
2024/01/28 05:31:35;;;;;;;7.17;3.10;;;0.50;99.90;;;;;;5072605;28;20661;-72
2024/01/28 05:34:01;;;;;;;6.20;3.30;;;0.40;99.90;;;;;;5072669;28;20416;-70
2024/01/28 05:36:27;;;;;;;4.07;3.13;;;0.40;99.90;;;;;;5071894;28;20665;-70
2024/01/28 05:38:54;;;;;;;3.00;2.70;;;0.30;99.90;;;;;;5072426;28;20397;-70
2024/01/28 05:41:20;;;;;;;7.40;2.87;;;0.40;99.90;;;;;;5072234;28;20409;-70
2024/01/28 05:43:46;;;;;;;3.73;2.40;;;0.30;99.90;;;;;;5072191;28;20411;-70
2024/01/28 05:46:11;;;;;;;5.50;3.40;;;0.30;99.90;;;;;;5072165;28;20514;-70
2024/01/28 05:48:37;;;;;;;6.00;2.73;;;0.30;99.90;;;;;;5072107;28;20177;-70
2024/01/28 05:51:03;;;;;;;3.13;2.33;;;0.40;99.90;;;;;;5072254;28;20177;-70
2024/01/28 05:53:28;;;;;;;5.17;2.80;;;0.40;99.90;;;;;;5072074;28;20219;-69
2024/01/28 05:55:54;;;;;;;6.93;3.80;;;0.30;99.90;;;;;;5072043;28;20192;-71
2024/01/28 05:58:21;;;;;;;6.33;3.13;;;0.30;99.90;;;;;;5071862;28;20174;-71
2024/01/28 06:00:46;;;;;;;8.50;2.50;;;0.30;99.90;;;;;;5071934;28;20256;-70
2024/01/28 06:03:12;;;;;;;9.60;2.80;;;0.30;99.90;;;;;;5071888;28;20844;-70
2024/01/28 06:05:38;;;;;;;8.77;3.27;;;0.40;99.90;;;;;;5071659;28;20874;-70
2024/01/28 06:08:03;;;;;;;6.40;3.20;;;0.50;99.90;;;;;;5072022;28;20629;-70
2024/01/28 06:10:29;;;;;;;6.73;2.80;;;0.50;99.90;;;;;;5072088;28;20166;-71
2024/01/28 06:12:54;;;;;;;7.43;3.40;;;0.50;99.90;;;;;;5071980;28;20465;-70
2024/01/28 06:15:20;;;;;;;6.07;2.60;;;0.50;99.90;;;;;;5071873;28;20197;-70
2024/01/28 06:17:45;;;;;;;9.47;3.23;;;0.50;99.90;;;;;;5071461;28;20660;-70
2024/01/28 06:20:12;;;;;;;5.53;2.80;;;0.50;99.90;;;;;;5071715;28;20162;-70
2024/01/28 06:22:37;;;;;;;6.63;2.53;;;0.50;99.90;;;;;;5071644;28;20766;-71
2024/01/28 06:25:03;;;;;;;7.40;4.00;;;0.60;99.90;;;;;;5071674;28;20499;-71
2024/01/28 06:27:29;;;;;;;12.57;3.50;;;0.60;99.90;;;;;;5071469;28;20568;-70
2024/01/28 06:29:55;;;;;;;9.43;2.90;;;0.60;99.90;;;;;;5071801;28;20253;-69
2024/01/28 06:32:22;;;;;;;7.43;3.20;;;0.70;99.90;;;;;;5071717;28;21025;-70
2024/01/28 06:34:48;;;;;;;6.60;3.20;;;0.80;99.90;;;;;;5071807;28;20557;-70
2024/01/28 06:37:13;;;;;;;6.60;2.30;;;0.90;99.90;;;;;;5074704;28;20452;-70
2024/01/28 06:39:39;;;;;;;10.60;3.90;;;0.90;99.90;;;;;;5075899;28;20408;-71
2024/01/28 06:42:04;;;;;;;6.73;2.90;;;0.90;99.90;;;;;;5075705;28;20249;-69
2024/01/28 06:44:32;;;;;;;6.63;3.00;;;0.90;99.90;;;;;;5075531;28;20166;-69
2024/01/28 06:46:58;;;;;;;5.10;2.57;;;0.90;99.90;;;;;;5075518;28;20173;-69
2024/01/28 06:49:24;;;;;;;5.30;3.03;;;0.90;99.90;;;;;;5075680;28;20495;-70
2024/01/28 06:51:49;;;;;;;4.50;2.90;;;1.00;99.90;;;;;;5075685;28;20565;-70
2024/01/28 06:54:15;;;;;;;3.63;2.53;;;1.00;99.90;;;;;;5075415;28;20265;-70
2024/01/28 06:56:40;;;;;;;7.27;2.80;;;0.90;99.90;;;;;;5075263;28;20686;-70
2024/01/28 06:59:06;;;;;;;4.50;2.70;;;1.00;99.90;;;;;;5075535;28;20163;-70
2024/01/28 07:01:32;;;;;;;3.33;2.80;;;0.90;99.90;;;;;;5075290;28;20572;-70
2024/01/28 07:03:57;;;;;;;7.70;3.67;;;1.00;99.90;;;;;;5075426;28;20487;-70
2024/01/28 07:06:23;;;;;;;5.50;3.00;;;1.00;99.90;;;;;;5075092;28;20193;-70
2024/01/28 07:08:48;;;;;;;7.00;2.90;;;1.00;99.90;;;;;;5075337;28;20197;-70
2024/01/28 07:11:14;;;;;;;3.63;2.30;;;1.10;99.90;;;;;;5075160;28;20162;-70
2024/01/28 07:13:40;;;;;;;4.00;2.73;;;1.10;99.90;;;;;;5075016;28;20170;-71
2024/01/28 07:16:06;;;;;;;7.93;2.47;;;1.10;99.90;;;;;;5074707;28;20703;-70
2024/01/28 07:18:32;;;;;;;5.50;3.43;;;1.10;99.90;;;;;;5074789;28;20432;-70
2024/01/28 07:20:57;;;;;;;3.73;2.47;;;1.10;99.90;;;;;;5073784;28;20771;-70
2024/01/28 07:23:23;;;;;;;6.47;2.70;;;1.10;99.90;;;;;;5074902;28;20653;-70
2024/01/28 07:25:48;;;;;;;3.93;2.90;;;1.00;99.90;;;;;;5074624;28;20228;-70
2024/01/28 07:28:14;;;;;;;5.03;2.87;;;1.10;99.90;;;;;;5074383;28;20216;-70
2024/01/28 07:30:39;;;;;;;4.50;2.83;;;1.20;99.90;;;;;;5073265;28;20174;-70
2024/01/28 07:33:07;;;;;;;3.80;2.93;;;1.20;99.90;;;;;;5074247;28;20162;-70
2024/01/28 07:35:34;;;;;;;5.40;2.90;;;1.20;99.90;;;;;;5073938;28;20194;-70
2024/01/28 07:38:00;;;;;;;7.37;2.80;;;1.30;99.90;;;;;;5074124;28;20612;-70
2024/01/28 07:40:25;;;;;;;3.10;2.40;;;1.40;99.90;;;;;;5074274;28;20491;-70
2024/01/28 07:42:51;;;;;;;10.70;3.10;;;1.40;99.90;;;;;;5074364;28;20162;-70
2024/01/28 07:45:16;;;;;;;6.50;3.27;;;1.50;99.90;;;;;;5074160;28;20182;-70
2024/01/28 07:47:42;;;;;;;3.60;2.30;;;1.50;99.90;;;;;;5073870;28;20162;-70
2024/01/28 07:50:08;;;;;;;3.80;2.83;;;1.60;99.90;;;;;;5074266;28;20166;-70
2024/01/28 07:52:34;;;;;;;3.33;2.30;;;1.60;99.90;;;;;;5073718;28;20252;-70
2024/01/28 07:54:59;;;;;;;10.60;4.13;;;1.80;99.90;;;;;;5074081;28;20830;-70
2024/01/28 07:57:25;;;;;;;6.50;2.83;;;1.80;99.90;;;;;;5072518;28;20456;-70
2024/01/28 07:59:50;;;;;;;4.77;3.13;;;1.90;99.90;;;;;;5074159;28;20173;-70
2024/01/28 08:02:16;;;;;;;6.80;2.87;;;1.80;99.90;;;;;;5074068;28;20159;-70
2024/01/28 08:04:44;;;;;;;3.60;2.80;;;1.90;99.90;;;;;;5074032;28;20196;-70
2024/01/28 08:07:09;;;;;;;6.60;3.20;;;2.00;99.90;;;;;;5073817;28;20166;-70
2024/01/28 08:09:36;;;;;;;7.87;3.03;;;2.10;99.90;;;;;;5073791;28;20409;-70
2024/01/28 08:12:03;;;;;;;4.30;2.90;;;2.20;99.90;;;;;;5073815;28;20212;-70
2024/01/28 08:14:28;;;;;;;3.30;2.50;;;2.30;99.90;;;;;;5073655;28;20401;-70
2024/01/28 08:16:55;;;;;;;6.80;2.80;;;2.80;99.90;;;;;;5073514;28;20448;-70
2024/01/28 08:19:21;;;;;;;4.20;2.20;;;3.80;99.90;;;;;;5073756;28;20162;-70
2024/01/28 08:21:47;;;;;;;6.93;3.77;;;5.00;99.90;;;;;;5073539;28;20775;-70
2024/01/28 08:24:13;;;;;;;4.70;3.47;;;6.20;99.90;;;;;;5073480;28;20175;-70
2024/01/28 08:26:39;;;;;;;4.93;2.40;;;7.40;99.90;;;;;;5073485;28;20794;-70
2024/01/28 08:29:04;;;;;;;3.40;2.17;;;8.30;99.90;;;;;;5073640;28;20166;-70
2024/01/28 08:31:30;;;;;;;7.83;3.50;;;8.80;99.90;;;;;;5073479;28;20408;-70
2024/01/28 08:33:55;;;;;;;4.17;2.33;;;9.00;99.90;;;;;;5073402;28;20170;-70
2024/01/28 08:36:21;;;;;;;8.53;2.97;;;9.60;99.90;;;;;;5073209;28;20202;-70
2024/01/28 08:38:46;;;;;;;3.77;2.70;;;10.10;99.90;;;;;;5073297;28;20251;-70
2024/01/28 08:41:12;;;;;;;3.80;2.90;;;10.60;95.40;;;;;;5073386;28;20185;-70
2024/01/28 08:43:38;;;;;;;5.20;2.90;;;11.40;85.80;;;;;;5073225;28;20173;-71
2024/01/28 08:46:03;;;;;;;3.03;2.40;;;12.00;73.10;;;;;;5072132;28;20222;-71
2024/01/28 08:48:30;;;;;;;3.33;2.83;;;12.50;65.60;;;;;;5072574;28;20595;-67
2024/01/28 08:50:55;;;;;;;5.30;2.80;;;13.10;61.30;;;;;;5073291;28;20170;-67
2024/01/28 08:53:21;;;;;;;4.78;2.60;;;13.50;57.40;;;;;;5072003;28;20489;-66
2024/01/28 08:55:46;;;;;;;4.77;2.90;;;14.10;56.60;;;;;;5073145;28;20182;-65
2024/01/28 08:58:12;;;;;;;4.33;2.40;;;14.70;53.90;;;;;;5072497;28;20166;-67
2024/01/28 09:00:39;;;;;;;4.53;2.70;;;15.00;50.90;;;;;;5073020;28;20216;-66
2024/01/28 09:03:04;;;;;;;4.70;2.50;;;15.30;49.00;;;;;;5073084;28;20223;-66
2024/01/28 09:05:30;;;;;;;6.23;2.80;;;15.30;47.20;;;;;;5072901;28;20907;-66
2024/01/28 09:07:56;;;;;;;7.10;3.17;;;15.60;47.10;;;;;;5072627;28;20203;-66
2024/01/28 09:10:23;;;;;;;10.53;2.97;;;15.50;46.20;;;;;;5072985;28;20164;-66
2024/01/28 09:12:48;;;;;;;3.30;2.60;;;15.80;46.00;;;;;;5072679;28;20401;-66
2024/01/28 09:15:14;;;;;;;4.60;2.57;;;16.10;45.10;;;;;;5072712;28;20417;-66
2024/01/28 09:17:41;;;;;;;4.43;2.77;;;16.50;44.30;;;;;;5072613;28;20281;-66
2024/01/28 09:20:07;;;;;;;7.53;2.90;;;16.60;43.70;;;;;;5072742;28;20788;-66
2024/01/28 09:22:35;;;;;;;2.67;2.47;;;16.50;42.80;;;;;;5072568;28;20907;-66
2024/01/28 09:25:04;;;;;;;4.67;2.10;;;16.60;42.90;;;;;;5072572;28;20417;-66
2024/01/28 09:27:30;;;;;;;7.13;2.80;;;16.90;42.80;;;;;;5072170;28;20401;-66
2024/01/28 09:29:56;;;;;;;6.20;2.73;;;17.20;41.90;;;;;;5072481;28;20405;-66
2024/01/28 09:32:24;;;;;;;4.63;2.70;;;17.20;41.40;;;;;;5072466;28;20454;-66
2024/01/28 09:34:50;;;;;;;6.57;3.20;;;17.60;41.40;;;;;;5070981;28;20691;-67
2024/01/28 09:37:17;;;;;;;6.20;2.93;;;18.00;40.70;;;;;;5071888;28;20550;-66
2024/01/28 09:39:43;;;;;;;4.77;2.67;;;18.20;40.50;;;;;;5072418;28;20166;-66
2024/01/28 09:42:15;;;;;;;10.03;2.60;;;17.90;38.90;;;;;;5072231;28;20409;-66
2024/01/28 09:44:41;;;;;;;5.10;2.60;;;17.70;38.90;;;;;;5072263;28;20847;-66
2024/01/28 09:47:08;;;;;;;4.47;3.17;;;17.80;39.10;;;;;;5072041;28;20447;-65
2024/01/28 09:49:39;;;;;;;3.17;2.60;;;17.70;38.40;;;;;;5072306;28;20230;-66
2024/01/28 09:52:10;;;;;;;4.07;2.90;;;17.60;38.70;;;;;;5072101;28;20397;-66
2024/01/28 09:54:36;;;;;;;6.53;2.37;;;18.10;39.10;;;;;;5071956;28;20969;-66
2024/01/28 09:57:04;;;;;;;9.07;3.27;;;18.30;38.60;;;;;;5071815;28;20997;-66
2024/01/28 09:59:31;;;;;;;6.73;2.70;;;18.70;38.00;;;;;;5072054;28;20401;-65
2024/01/28 10:01:57;;;;;;;6.23;2.80;;;18.70;37.50;;;;;;5071964;28;20413;-66
2024/01/28 10:04:23;;;;;;;4.27;3.37;;;18.90;37.80;;;;;;5071909;28;20499;-66
2024/01/28 10:06:49;;;;;;;7.10;2.97;;;19.00;37.10;;;;;;5071650;28;21029;-66
2024/01/28 10:09:14;;;;;;;10.70;4.23;;;19.00;36.60;;;;;;5072003;28;20491;-66
2024/01/28 10:11:40;;;;;;;6.20;3.17;;;19.10;36.40;;;;;;5069971;28;20223;-66
2024/01/28 10:14:05;;;;;;;4.40;3.13;;;19.20;36.20;;;;;;5071999;28;20159;-66
2024/01/28 10:16:34;;;;;;;4.03;2.90;;;19.20;36.20;;;;;;5071453;28;20823;-66
2024/01/28 10:18:59;;;;;;;3.77;2.70;;;19.50;36.40;;;;;;5071886;28;20196;-66
2024/01/28 10:21:25;;;;;;;9.77;3.37;;;20.00;35.90;;;;;;5071880;28;20400;-67
2024/01/28 10:23:51;;;;;;;5.10;2.70;;;20.50;35.70;;;;;;5071785;28;20166;-67
2024/01/28 10:26:16;;;;;;;8.80;2.77;;;20.70;34.70;;;;;;5071508;28;20265;-66
2024/01/28 10:28:43;;;;;;;3.40;2.43;;;20.90;34.30;;;;;;5071715;28;20405;-67
2024/01/28 10:31:09;;;;;;;5.60;3.97;;;20.80;34.20;;;;;;5071710;28;20170;-67
2024/01/28 10:33:34;;;;;;;4.87;2.60;;;21.10;34.00;;;;;;5071687;28;20444;-67
2024/01/28 10:36:03;;;;;;;9.30;3.00;;;21.40;33.80;;;;;;5071548;28;20554;-67
2024/01/28 10:38:32;;;;;;;5.97;3.50;;;21.60;33.40;;;;;;5071363;28;20162;-67
2024/01/28 10:40:59;;;;;;;3.43;3.03;;;22.10;33.40;;;;;;5071606;28;20408;-67
2024/01/28 10:43:36;;;;;;;4.50;2.20;;;22.00;32.60;;;;;;5071562;28;20895;-67
2024/01/28 10:46:05;;;;;;;3.97;2.70;;;22.40;33.40;;;;;;5071585;28;20473;-67
2024/01/28 10:48:32;;;;;;;3.93;2.80;;;22.80;32.30;;;;;;5071254;28;20502;-67
2024/01/28 10:50:59;;;;;;;5.17;2.97;;;23.20;32.10;;;;;;5071515;28;20504;-67
2024/01/28 10:53:26;;;;;;;5.17;2.80;;;23.70;31.80;;;;;;5071445;28;20432;-67
2024/01/28 10:55:52;;;;;;;6.10;2.47;;;24.30;31.80;;;;;;5071309;28;20432;-67
2024/01/28 10:58:17;;;;;;;3.10;2.53;;;24.60;30.90;;;;;;5070960;28;20454;-67
2024/01/28 11:00:43;;;;;;;4.50;3.20;;;25.10;30.90;;;;;;5071615;28;20239;-67
2024/01/28 11:03:10;;;;;;;5.20;3.70;;;25.30;29.70;;;;;;5071453;28;20202;-68
2024/01/28 11:05:36;;;;;;;4.33;3.73;;;25.40;29.20;;;;;;5071294;28;20189;-68
2024/01/28 11:08:02;;;;;;;3.07;2.80;;;25.50;29.10;;;;;;5071192;28;20436;-67
2024/01/28 11:10:29;;;;;;;3.87;2.90;;;25.50;29.30;;;;;;5071395;28;20886;-67
2024/01/28 11:12:56;;;;;;;3.27;2.93;;;26.00;29.40;;;;;;5070897;28;20440;-65
2024/01/28 11:15:22;;;;;;;3.17;2.63;;;26.20;28.30;;;;;;5071080;28;20429;-65
2024/01/28 11:17:47;;;;;;;2.83;2.50;;;25.60;27.80;;;;;;5070902;28;20512;-68
2024/01/28 11:20:17;;;;;;;7.50;3.40;;;25.30;28.20;;;;;;5071205;28;20499;-67
2024/01/28 11:22:52;;;;;;;3.60;2.80;;;25.60;29.10;;;;;;5073447;28;20166;-67
2024/01/28 11:25:22;;;;;;;4.73;2.90;;;25.60;28.20;;;;;;5075180;28;20423;-68
2024/01/28 11:27:49;;;;;;;3.30;2.97;;;25.60;28.20;;;;;;5074646;28;20411;-65
2024/01/28 11:30:19;;;;;;;4.23;2.70;;;25.30;27.90;;;;;;5074715;28;20980;-65
2024/01/28 11:32:45;;;;;;;3.27;2.63;;;25.30;28.00;;;;;;5074656;28;20434;-66
2024/01/28 11:35:11;;;;;;;3.77;2.50;;;25.40;28.50;;;;;;5074484;28;20420;-65
2024/01/28 11:38:04;;;;;;;2.83;2.50;;;25.40;28.10;;;;;;5074246;28;20506;-65
2024/01/28 11:40:37;;;;;;;4.90;3.20;;;25.20;28.20;;;;;;5074562;28;20158;-65
2024/01/28 11:43:06;;;;;;;3.60;2.50;;;25.40;28.00;;;;;;5074326;28;20438;-65
2024/01/28 11:45:31;;;;;;;2.77;2.27;;;25.50;27.90;;;;;;5074398;28;20554;-65
2024/01/28 11:47:57;;;;;;;5.20;3.07;;;25.70;28.10;;;;;;5074152;28;20491;-65
2024/01/28 11:50:23;;;;;;;3.57;2.33;;;26.00;28.00;;;;;;5074227;28;20192;-65
2024/01/28 11:52:48;;;;;;;3.93;2.27;;;26.10;27.60;;;;;;5074144;28;20637;-65
2024/01/28 11:55:15;;;;;;;5.10;3.10;;;26.10;27.40;;;;;;5074172;28;20189;-65
2024/01/28 11:57:46;;;;;;;4.67;2.70;;;26.00;27.40;;;;;;5073860;28;20217;-65
2024/01/28 12:00:12;;;;;;;2.40;2.03;;;26.00;28.00;;;;;;5074172;28;20811;-65
2024/01/28 12:02:39;;;;;;;4.70;3.40;;;26.10;27.90;;;;;;5074104;28;20911;-65
2024/01/28 12:05:06;;;;;;;5.10;2.50;;;26.20;27.40;;;;;;5073624;28;20763;-65
2024/01/28 12:07:33;;;;;;;3.93;2.73;;;26.00;27.50;;;;;;5073801;28;20926;-65
2024/01/28 12:10:00;;;;;;;3.77;2.57;;;26.10;27.70;;;;;;5073910;28;20400;-65
2024/01/28 12:12:27;;;;;;;3.47;2.93;;;26.10;27.30;;;;;;5072574;28;20413;-65
2024/01/28 12:14:52;;;;;;;2.97;1.87;;;25.70;27.50;;;;;;5073751;28;20947;-65
2024/01/28 12:17:18;;;;;;;4.63;2.80;;;25.50;27.70;;;;;;5073705;28;20444;-65
2024/01/28 12:19:43;;;;;;;2.63;2.40;;;25.80;27.90;;;;;;5073790;28;20219;-66
2024/01/28 12:22:13;;;;;;;2.80;2.30;;;25.80;28.00;;;;;;5073789;28;20162;-66
2024/01/28 12:24:45;;;;;;;6.60;2.90;;;26.30;28.20;;;;;;5073525;28;20182;-65
2024/01/28 12:27:11;;;;;;;4.40;2.50;;;26.70;27.90;;;;;;5073473;28;20487;-65
2024/01/28 12:29:36;;;;;;;4.37;3.20;;;27.00;27.60;;;;;;5073614;28;20563;-65
2024/01/28 12:32:02;;;;;;;3.63;2.57;;;27.30;27.50;;;;;;5073648;28;20169;-66
2024/01/28 12:34:28;;;;;;;3.33;3.03;;;27.00;26.80;;;;;;5072644;28;20754;-65
2024/01/28 12:36:54;;;;;;;3.57;2.70;;;26.60;26.80;;;;;;5073181;28;20212;-65
2024/01/28 12:39:19;;;;;;;4.73;2.23;;;26.70;27.20;;;;;;5073461;28;20416;-66
2024/01/28 12:41:45;;;;;;;3.13;2.60;;;27.00;27.10;;;;;;5073447;28;20159;-65
2024/01/28 12:44:10;;;;;;;3.33;2.70;;;26.90;27.20;;;;;;5071960;28;20169;-65
2024/01/28 12:46:36;;;;;;;4.47;3.03;;;27.40;27.40;;;;;;5072976;28;20190;-65